Airfield :







YOU CAN JOIN US ON...

 
LOGIN :

Register | Disclaimer

   EN    FR    IT 

 









Legend :    VFR   Marginal VFR   IFR   Intensive IFR   Very Intensive IFR
Visi :
Ceiling :
>= 8 km
>= 3000ft
5 to 8 km
1000 to 3000 ft
1500m to 5 km
500 to 1000 ft
800 to 1500m
200 to 500 ft
< 800m
< 200 ft
Symbols :   Thunderstorms  Fog  Heavy snow  Heavy precipitations  Wind > 20 kt






- Airport Elevation : 20 ft
- IATA code : BOS


KBOS - General Edward Lawrence Logan International

CURRENT METAR :
  • 250654Z 17006KT 6SM -SN BR FEW006 SCT027 OVC075 M02/M03 A2990 RMK AO2 SLP123 P0001 T10171028 $

EXPIRED METARs :
  • 250628Z 17006KT 4SM -SN BR SCT022 OVC080 M02/M03 A2990 RMK AO2 P0001 T10221033 $
  • 250604Z 18005KT 2SM -SN BR FEW016 OVC025 M02/M03 A2990 RMK AO2 P0001 T10221028 $
  • 250554Z 19004KT 3SM -SN BR FEW017 OVC030 M02/M03 A2991 RMK AO2 SLP126 P0001 60005 T10221028 11011 21022 58001 $
  • 250544Z 20004KT 2 1/2SM -SN BR FEW017 OVC030 M02/M03 A2991 RMK AO2 P0001 T10221033 $
  • 250506Z 23008KT 1 1/2SM -SN BR FEW009 OVC017 M02/M03 A2992 RMK AO2 P0001 T10221033 $
  • 250454Z 22006KT 1SM R04R/P6000FT -SN BR FEW008 OVC014 M02/M03 A2992 RMK AO2 SLP131 P0004 T10221033 410111050 $

TAF KBOS
Valid from the 25 at 06:00 until the 26 at 12:00 UTC


250534Z 2506/2612 21008KT 1 1/2SM -SN BR OVC015
FM250900 18007KT 6SM BR VCSH OVC020
FM251200 19008KT 4SM BR VCSH OVC010
FM251500 24010G18KT P6SM BKN025
FM251800 26011G18KT P6SM BKN045
FM260000 30010G19KT P6SM SCT250
KZBW FIR / North America



MET'MAP, your aeronautical weather chart ! - Copyright ORBIFLY December 2007 - Disclaimer

ORBIFLY MET'MAP TEAM :

Programming & Development : Alexandra Zaïnal
Original concept : Baudouin d'Aumeries
Technical & hardware support : Manuel Goepfert
Assistance : Marc-Olivier Méhu

Contact : metmap@orbifly.com




SOURCES & CREDITS :

   NOAA